Time;durP1;ratioP1;P1;durP2;ratioP2;P2;SDS_P1;SDS_P2;PMS_P1;PMS_P2;Temp;Humidity;BMP_temperature;BMP_pressure;BME280_temperature;BME280_humidity;BME280_pressure;Samples;Min_cycle;Max_cycle;Signal;HPM_P1;HPM_P2
2023/06/18 00:00:55;;;;;;;11.68;10.57;;;14.70;99.90;;;;;;4996030;28;20677;-75
2023/06/18 00:03:20;;;;;;;12.52;11.40;;;14.70;99.90;;;;;;5005167;28;20172;-76
2023/06/18 00:05:46;;;;;;;11.65;10.70;;;14.70;99.90;;;;;;5005642;28;20203;-76
2023/06/18 00:08:12;;;;;;;10.32;9.43;;;14.80;99.90;;;;;;5007070;28;20216;-74
2023/06/18 00:10:37;;;;;;;11.18;10.18;;;14.90;99.90;;;;;;5005745;28;21259;-76
2023/06/18 00:13:04;;;;;;;11.10;10.10;;;15.00;99.90;;;;;;5013585;28;20187;-74
2023/06/18 00:15:30;;;;;;;11.45;10.45;;;15.00;99.90;;;;;;5010993;28;20615;-76
2023/06/18 00:17:56;;;;;;;12.68;11.60;;;14.90;99.90;;;;;;5007093;28;20242;-76
2023/06/18 00:20:21;;;;;;;10.95;9.95;;;14.80;99.90;;;;;;5015579;28;20297;-76
2023/06/18 00:22:48;;;;;;;11.45;10.50;;;14.70;99.90;;;;;;5019908;28;20271;-75
2023/06/18 00:25:14;;;;;;;10.88;9.98;;;14.70;99.90;;;;;;5012385;28;20171;-76
2023/06/18 00:27:40;;;;;;;11.27;10.27;;;14.60;99.90;;;;;;5018642;28;20182;-76
2023/06/18 00:30:06;;;;;;;11.38;10.40;;;14.50;99.90;;;;;;4996573;28;20265;-77
2023/06/18 00:32:32;;;;;;;10.77;9.88;;;14.30;99.90;;;;;;5014448;28;20195;-76
2023/06/18 00:35:00;;;;;;;11.65;10.65;;;14.10;1.00;;;;;;5009289;28;20192;-75
2023/06/18 00:37:27;;;;;;;11.98;10.88;;;14.20;1.00;;;;;;5008744;28;20238;-76
2023/06/18 00:39:55;;;;;;;10.57;9.68;;;14.30;99.90;;;;;;5008818;28;20917;-75
2023/06/18 00:42:21;;;;;;;11.32;10.32;;;14.40;99.90;;;;;;5026206;28;20222;-75
2023/06/18 00:44:47;;;;;;;11.48;10.48;;;14.50;99.90;;;;;;5014377;28;20180;-75
2023/06/18 00:47:13;;;;;;;11.20;10.20;;;14.50;99.90;;;;;;5019488;28;20207;-75
2023/06/18 00:49:43;;;;;;;11.27;10.23;;;14.50;99.90;;;;;;5012926;28;20268;-76
2023/06/18 00:52:14;;;;;;;10.65;9.80;;;14.50;99.90;;;;;;5009699;28;20180;-75
2023/06/18 00:54:41;;;;;;;10.65;9.75;;;14.40;99.90;;;;;;5011834;28;20187;-75
2023/06/18 00:57:08;;;;;;;11.52;10.52;;;14.00;99.90;;;;;;5017540;28;20313;-75
2023/06/18 00:59:37;;;;;;;10.68;9.77;;;13.80;1.00;;;;;;5012433;28;20199;-76
2023/06/18 01:02:03;;;;;;;10.80;9.90;;;13.80;99.90;;;;;;5018218;28;20229;-76
2023/06/18 01:04:32;;;;;;;11.05;10.05;;;14.00;99.90;;;;;;5014467;28;20554;-76
2023/06/18 01:07:01;;;;;;;10.75;9.77;;;14.10;99.90;;;;;;5014626;28;20205;-76
2023/06/18 01:09:28;;;;;;;10.52;9.60;;;14.20;99.90;;;;;;5019989;28;20186;-76
2023/06/18 01:11:54;;;;;;;10.18;9.38;;;14.30;99.90;;;;;;5014504;28;20191;-76
2023/06/18 01:14:26;;;;;;;10.73;9.77;;;14.30;99.90;;;;;;5015589;28;20179;-76
2023/06/18 01:16:58;;;;;;;9.93;9.05;;;14.30;99.90;;;;;;5014684;28;20709;-76
2023/06/18 01:19:31;;;;;;;10.27;9.48;;;14.30;99.90;;;;;;5006344;28;20194;-75
2023/06/18 01:22:03;;;;;;;10.57;9.57;;;14.30;99.90;;;;;;5015904;28;20191;-76
2023/06/18 01:24:32;;;;;;;10.40;9.52;;;14.30;99.90;;;;;;5014219;28;20662;-75
2023/06/18 01:26:58;;;;;;;9.95;9.05;;;14.40;99.90;;;;;;5015448;28;20199;-75
2023/06/18 01:29:27;;;;;;;9.95;9.05;;;14.20;99.90;;;;;;5016899;28;20179;-76
2023/06/18 01:31:56;;;;;;;10.63;9.73;;;14.10;99.90;;;;;;5014650;28;20202;-74
2023/06/18 01:34:24;;;;;;;10.80;9.65;;;14.10;99.90;;;;;;5014442;28;20389;-77
2023/06/18 01:37:14;;;;;;;10.13;9.13;;;13.90;99.90;;;;;;5009731;28;20203;-76
2023/06/18 01:40:05;;;;;;;10.38;9.38;;;13.80;99.90;;;;;;5017241;28;20202;-76
2023/06/18 01:42:36;;;;;;;9.75;8.85;;;13.80;99.90;;;;;;5010880;28;20188;-76
2023/06/18 01:45:30;;;;;;;8.98;8.18;;;13.80;99.90;;;;;;5014877;28;20195;-75
2023/06/18 01:48:05;;;;;;;9.40;8.60;;;13.60;99.90;;;;;;4968193;28;20219;-76
2023/06/18 01:50:32;;;;;;;10.35;9.32;;;13.50;99.90;;;;;;5010528;28;20756;-76
2023/06/18 01:53:00;;;;;;;10.25;9.35;;;13.40;99.90;;;;;;5017204;28;20183;-76
2023/06/18 01:55:28;;;;;;;10.38;9.48;;;13.50;99.90;;;;;;5018610;28;20246;-76
2023/06/18 01:57:58;;;;;;;10.38;9.40;;;13.50;99.90;;;;;;5014370;28;20633;-75
2023/06/18 02:00:24;;;;;;;9.43;8.63;;;13.60;99.90;;;;;;4996632;28;20625;-76
2023/06/18 02:02:51;;;;;;;9.93;9.00;;;13.60;99.90;;;;;;5016081;28;20195;-75
2023/06/18 02:05:17;;;;;;;10.45;9.55;;;13.70;99.90;;;;;;5020090;28;20175;-75
2023/06/18 02:07:43;;;;;;;10.00;9.10;;;13.70;99.90;;;;;;5001590;28;20796;-75
2023/06/18 02:10:09;;;;;;;9.65;8.82;;;13.70;99.90;;;;;;5016075;28;20274;-75
2023/06/18 02:12:35;;;;;;;10.02;9.13;;;13.80;99.90;;;;;;5015078;28;20300;-75
2023/06/18 02:15:01;;;;;;;11.27;10.20;;;13.90;99.90;;;;;;5017035;28;20251;-76
2023/06/18 02:17:28;;;;;;;10.85;9.80;;;13.80;99.90;;;;;;4997301;28;20202;-74
2023/06/18 02:19:54;;;;;;;10.45;9.55;;;13.90;99.90;;;;;;5010413;28;20199;-76
2023/06/18 02:22:20;;;;;;;9.30;8.50;;;13.80;99.90;;;;;;5011624;28;20263;-75
2023/06/18 02:24:49;;;;;;;9.48;8.57;;;13.70;99.90;;;;;;5010397;28;20552;-76
2023/06/18 02:27:15;;;;;;;9.93;8.98;;;13.50;99.90;;;;;;5009046;28;20202;-75
2023/06/18 02:29:41;;;;;;;9.48;8.68;;;13.30;99.90;;;;;;5022682;28;20171;-75
2023/06/18 02:32:07;;;;;;;9.90;9.10;;;13.30;99.90;;;;;;5011183;28;20185;-74
2023/06/18 02:34:34;;;;;;;9.38;8.48;;;13.10;99.90;;;;;;4992085;28;20844;-76
2023/06/18 02:37:00;;;;;;;9.73;8.85;;;13.00;99.90;;;;;;5018292;28;20203;-76
2023/06/18 02:39:25;;;;;;;10.82;9.80;;;12.80;1.00;;;;;;5017358;28;20213;-75
2023/06/18 02:41:51;;;;;;;10.20;9.35;;;12.60;1.00;;;;;;5008740;28;20219;-75
2023/06/18 02:44:17;;;;;;;10.63;9.52;;;12.50;1.00;;;;;;5022297;28;20190;-75
2023/06/18 02:46:42;;;;;;;10.38;9.48;;;12.50;1.00;;;;;;5012472;28;20206;-75
2023/06/18 02:49:08;;;;;;;9.55;8.73;;;12.80;1.00;;;;;;5015024;28;20183;-75
2023/06/18 02:51:34;;;;;;;9.70;8.68;;;12.90;99.90;;;;;;5021314;28;20245;-75
2023/06/18 02:53:59;;;;;;;9.25;8.35;;;13.00;99.90;;;;;;5010888;28;20219;-76
2023/06/18 02:56:28;;;;;;;9.75;8.80;;;13.20;99.90;;;;;;5017287;28;20221;-75
2023/06/18 02:58:56;;;;;;;10.05;9.15;;;13.20;99.90;;;;;;5014791;28;20266;-75
2023/06/18 03:01:23;;;;;;;10.07;8.77;;;13.20;99.90;;;;;;5006374;28;20211;-75
2023/06/18 03:03:49;;;;;;;10.07;9.07;;;13.10;99.90;;;;;;5011136;28;20658;-75
2023/06/18 03:06:15;;;;;;;9.38;8.48;;;13.00;99.90;;;;;;5012407;28;20207;-76
2023/06/18 03:08:41;;;;;;;10.13;9.13;;;13.00;99.90;;;;;;5013571;28;20192;-75
2023/06/18 03:11:07;;;;;;;9.95;8.95;;;12.90;99.90;;;;;;5003921;28;20199;-76
2023/06/18 03:13:33;;;;;;;12.07;8.85;;;12.90;99.90;;;;;;4997270;28;20201;-75
2023/06/18 03:16:01;;;;;;;9.73;8.82;;;12.90;99.90;;;;;;5016312;28;20309;-75
2023/06/18 03:18:26;;;;;;;10.25;9.25;;;12.90;99.90;;;;;;5014553;28;20191;-76
2023/06/18 03:20:53;;;;;;;10.45;9.45;;;12.90;99.90;;;;;;5015310;28;20212;-75
2023/06/18 03:23:19;;;;;;;10.02;9.23;;;13.00;99.90;;;;;;5010710;28;20175;-76
2023/06/18 03:25:45;;;;;;;10.65;9.70;;;13.30;99.90;;;;;;5013048;28;20210;-76
2023/06/18 03:28:10;;;;;;;10.15;8.90;;;13.00;99.90;;;;;;5017651;28;20245;-76
2023/06/18 03:30:36;;;;;;;11.65;10.45;;;13.10;99.90;;;;;;5014763;28;20187;-76
2023/06/18 03:33:02;;;;;;;11.23;9.82;;;13.20;99.90;;;;;;4992249;28;20195;-75
2023/06/18 03:35:29;;;;;;;10.75;9.85;;;13.20;99.90;;;;;;5012491;28;20266;-77
2023/06/18 03:37:54;;;;;;;10.88;9.45;;;13.30;99.90;;;;;;5012591;28;20188;-76
2023/06/18 03:40:20;;;;;;;11.57;9.63;;;13.30;99.90;;;;;;5010159;28;20265;-76
2023/06/18 03:42:46;;;;;;;10.27;9.25;;;13.30;99.90;;;;;;5008460;28;20263;-75
2023/06/18 03:45:11;;;;;;;9.02;8.13;;;13.40;99.90;;;;;;5006724;28;20262;-76
2023/06/18 03:47:37;;;;;;;10.68;9.70;;;13.40;99.90;;;;;;5014636;28;20266;-76
2023/06/18 03:50:03;;;;;;;9.75;8.75;;;13.10;98.80;;;;;;5014774;28;20517;-76
2023/06/18 03:52:29;;;;;;;10.77;9.70;;;12.70;99.90;;;;;;4995057;28;20187;-75
2023/06/18 03:54:54;;;;;;;11.02;9.15;;;12.40;99.90;;;;;;4993553;28;20191;-76
2023/06/18 03:57:20;;;;;;;11.00;9.98;;;12.30;1.00;;;;;;5017588;28;20218;-75
2023/06/18 03:59:46;;;;;;;11.52;10.30;;;12.50;1.00;;;;;;5018198;28;20230;-75
2023/06/18 04:02:12;;;;;;;10.70;9.70;;;12.60;1.00;;;;;;5012868;28;20184;-76
2023/06/18 04:04:38;;;;;;;10.77;9.75;;;12.80;99.90;;;;;;5013185;28;20285;-75
2023/06/18 04:07:04;;;;;;;10.25;9.35;;;13.00;99.90;;;;;;5016222;28;20206;-74
2023/06/18 04:09:29;;;;;;;12.30;9.60;;;13.20;99.90;;;;;;5009942;28;20179;-76
2023/06/18 04:11:56;;;;;;;10.10;9.10;;;13.20;99.90;;;;;;5014905;28;20681;-76
2023/06/18 04:14:22;;;;;;;10.73;9.70;;;13.20;99.90;;;;;;5014031;28;20194;-76
2023/06/18 04:16:47;;;;;;;10.63;9.73;;;13.20;99.90;;;;;;5016587;28;20206;-76
2023/06/18 04:19:13;;;;;;;10.30;9.40;;;13.30;99.90;;;;;;5013064;28;20247;-77
2023/06/18 04:21:39;;;;;;;10.30;9.30;;;13.40;99.90;;;;;;5008792;28;20179;-75
2023/06/18 04:24:05;;;;;;;10.90;9.88;;;13.40;99.90;;;;;;5005361;28;20597;-76
2023/06/18 04:26:30;;;;;;;10.77;9.85;;;13.70;99.90;;;;;;5018166;28;20199;-76
2023/06/18 04:28:56;;;;;;;10.45;9.43;;;13.90;99.90;;;;;;5014152;28;20253;-76
2023/06/18 04:31:21;;;;;;;11.80;10.57;;;14.10;99.90;;;;;;5011666;28;20184;-76
2023/06/18 04:33:47;;;;;;;11.25;9.93;;;14.20;99.90;;;;;;5014197;28;20241;-74
2023/06/18 04:36:14;;;;;;;14.30;11.27;;;14.30;99.90;;;;;;5009177;28;20203;-76
2023/06/18 04:38:40;;;;;;;14.63;11.25;;;14.40;99.90;;;;;;5006010;28;20210;-76
2023/06/18 04:41:05;;;;;;;12.45;10.95;;;14.40;99.90;;;;;;5006000;28;20675;-76
2023/06/18 04:43:31;;;;;;;14.68;11.45;;;14.50;99.90;;;;;;5008730;28;20718;-76
2023/06/18 04:45:58;;;;;;;12.45;11.18;;;14.60;99.90;;;;;;5006381;28;20211;-76
2023/06/18 04:48:24;;;;;;;12.43;11.10;;;14.60;99.90;;;;;;5007902;28;20176;-75
2023/06/18 04:50:49;;;;;;;13.13;11.18;;;14.70;99.90;;;;;;5018054;28;20190;-75
2023/06/18 04:53:16;;;;;;;13.30;10.30;;;14.70;99.90;;;;;;5011148;28;20208;-75
2023/06/18 04:55:43;;;;;;;11.43;10.23;;;15.00;88.80;;;;;;5011090;28;20195;-76
2023/06/18 04:58:10;;;;;;;12.35;9.00;;;15.50;48.30;;;;;;5008786;28;20195;-75
2023/06/18 05:00:35;;;;;;;10.02;9.00;;;17.00;1.00;;;;;;5011555;28;20191;-75
2023/06/18 05:03:03;;;;;;;10.68;8.18;;;18.60;1.00;;;;;;5014264;28;20222;-76
2023/06/18 05:05:29;;;;;;;10.32;8.48;;;20.10;1.00;;;;;;5012405;28;20253;-76
2023/06/18 05:07:55;;;;;;;10.02;7.70;;;21.50;1.00;;;;;;5016988;28;20186;-76
2023/06/18 05:10:21;;;;;;;9.75;8.15;;;22.40;1.00;;;;;;5018849;28;20183;-76
2023/06/18 05:12:47;;;;;;;10.65;8.27;;;23.30;1.00;;;;;;5015664;28;20194;-76
2023/06/18 05:15:12;;;;;;;8.73;8.02;;;24.00;1.00;;;;;;5013992;28;20188;-76
2023/06/18 05:17:38;;;;;;;8.63;7.80;;;24.70;1.00;;;;;;5007340;28;20243;-76
2023/06/18 05:20:04;;;;;;;9.65;7.53;;;25.20;1.00;;;;;;5013340;28;20219;-77
2023/06/18 05:22:30;;;;;;;8.75;7.85;;;25.70;1.00;;;;;;5014003;28;20265;-76
2023/06/18 05:24:59;;;;;;;10.32;7.70;;;26.10;1.00;;;;;;5017181;28;20182;-76
2023/06/18 05:27:30;;;;;;;8.98;8.18;;;26.30;1.00;;;;;;5010933;28;20203;-76
2023/06/18 05:29:56;;;;;;;8.82;8.02;;;26.60;1.00;;;;;;5011295;28;20202;-75
2023/06/18 05:32:22;;;;;;;8.27;7.47;;;27.20;1.00;;;;;;5019695;28;20192;-76
2023/06/18 05:34:48;;;;;;;8.40;7.70;;;27.70;1.00;;;;;;5011699;28;20188;-75
2023/06/18 05:37:13;;;;;;;7.93;7.32;;;28.00;1.00;;;;;;5008229;28;20929;-75
2023/06/18 05:39:39;;;;;;;8.70;8.00;;;28.30;1.00;;;;;;5015886;28;20585;-75
2023/06/18 05:42:06;;;;;;;8.90;8.20;;;28.80;1.00;;;;;;5014485;28;20183;-76
2023/06/18 05:44:31;;;;;;;8.93;8.23;;;29.30;1.00;;;;;;5020159;28;20179;-77
2023/06/18 05:46:57;;;;;;;8.40;7.60;;;29.50;1.00;;;;;;5011070;28;20224;-75
2023/06/18 05:49:22;;;;;;;8.82;8.13;;;29.90;1.00;;;;;;5014220;28;20186;-75
2023/06/18 05:51:48;;;;;;;8.68;7.97;;;29.90;1.00;;;;;;5010413;28;20210;-75
2023/06/18 05:54:13;;;;;;;8.90;8.20;;;29.80;1.00;;;;;;5011720;28;20183;-75
2023/06/18 05:56:39;;;;;;;9.70;8.90;;;30.30;1.00;;;;;;5013975;28;20207;-76
2023/06/18 05:59:05;;;;;;;9.57;8.88;;;31.00;1.00;;;;;;5015803;28;20214;-75
2023/06/18 06:01:33;;;;;;;8.23;7.53;;;31.20;1.00;;;;;;5006258;28;20244;-75
2023/06/18 06:03:59;;;;;;;9.90;8.93;;;31.40;1.00;;;;;;5018743;28;20194;-76
2023/06/18 06:06:25;;;;;;;9.40;8.60;;;31.50;1.00;;;;;;5007181;28;20196;-77
2023/06/18 06:08:52;;;;;;;8.85;8.13;;;31.70;1.00;;;;;;5016509;28;20195;-77
2023/06/18 06:11:17;;;;;;;10.27;9.40;;;32.10;1.00;;;;;;5010936;28;20187;-76
2023/06/18 06:13:43;;;;;;;8.68;8.00;;;32.60;1.00;;;;;;5011174;28;20183;-76
2023/06/18 06:16:09;;;;;;;8.77;8.05;;;31.90;1.00;;;;;;5007110;28;20262;-76
2023/06/18 06:18:34;;;;;;;9.85;9.05;;;32.50;1.00;;;;;;5018885;28;20183;-76
2023/06/18 06:21:00;;;;;;;8.13;7.53;;;32.90;1.00;;;;;;5013070;28;20210;-76
2023/06/18 06:23:26;;;;;;;8.77;8.07;;;33.10;1.00;;;;;;5016450;28;20180;-76
2023/06/18 06:25:51;;;;;;;8.57;7.82;;;33.50;1.00;;;;;;5015081;28;20199;-75
2023/06/18 06:28:17;;;;;;;9.88;9.13;;;33.80;1.00;;;;;;5014478;28;20201;-75
2023/06/18 06:30:43;;;;;;;8.38;7.80;;;33.90;1.00;;;;;;5010934;28;20193;-76
2023/06/18 06:33:08;;;;;;;10.38;9.55;;;34.10;1.00;;;;;;5016382;28;20194;-76
2023/06/18 06:35:34;;;;;;;9.13;8.43;;;34.10;1.00;;;;;;5006280;28;20212;-75
2023/06/18 06:38:00;;;;;;;10.20;9.30;;;34.60;1.00;;;;;;5015530;28;20273;-76
2023/06/18 06:40:25;;;;;;;8.90;8.20;;;34.40;1.00;;;;;;5008061;28;20194;-76
2023/06/18 06:42:51;;;;;;;10.10;9.30;;;34.70;1.00;;;;;;5014041;28;20198;-75
2023/06/18 06:45:16;;;;;;;10.32;9.52;;;34.60;1.00;;;;;;5012948;28;20176;-76
2023/06/18 06:47:42;;;;;;;9.82;9.13;;;33.90;1.00;;;;;;5010677;28;20894;-76
2023/06/18 06:50:08;;;;;;;10.10;9.23;;;34.30;1.00;;;;;;5013116;28;20180;-75
2023/06/18 06:52:34;;;;;;;8.30;7.60;;;34.40;1.00;;;;;;5011766;28;20194;-75
2023/06/18 06:55:01;;;;;;;8.50;7.90;;;34.90;1.00;;;;;;5013197;28;20192;-75
2023/06/18 06:57:26;;;;;;;9.02;8.25;;;35.80;1.00;;;;;;5017465;28;20293;-76
2023/06/18 06:59:52;;;;;;;8.98;8.27;;;36.60;1.00;;;;;;5015178;28;20761;-76
2023/06/18 07:02:17;;;;;;;7.57;7.07;;;35.60;1.00;;;;;;5006399;28;20197;-75
2023/06/18 07:04:46;;;;;;;7.70;7.20;;;36.20;1.00;;;;;;5010266;28;20217;-76
2023/06/18 07:07:13;;;;;;;8.05;7.45;;;35.70;1.00;;;;;;5011480;28;20245;-75
2023/06/18 07:09:39;;;;;;;7.60;7.00;;;36.40;1.00;;;;;;5003753;28;20201;-75
2023/06/18 07:12:05;;;;;;;9.23;8.52;;;37.30;1.00;;;;;;5007566;28;20587;-75
2023/06/18 07:14:30;;;;;;;7.60;7.10;;;37.10;1.00;;;;;;5019134;28;20234;-76
2023/06/18 07:16:57;;;;;;;7.95;7.38;;;37.50;1.00;;;;;;4985666;28;20203;-76
2023/06/18 07:19:23;;;;;;;8.02;7.45;;;37.90;1.00;;;;;;5015979;28;20286;-75
2023/06/18 07:21:50;;;;;;;8.63;8.02;;;38.20;1.00;;;;;;5001803;28;20190;-75
2023/06/18 07:24:16;;;;;;;8.05;7.53;;;38.70;1.00;;;;;;5003952;28;20174;-75
2023/06/18 07:26:43;;;;;;;7.57;7.03;;;37.60;1.00;;;;;;4998746;28;20268;-75
2023/06/18 07:29:09;;;;;;;7.38;6.88;;;37.50;1.00;;;;;;5012066;28;20182;-74
2023/06/18 07:31:35;;;;;;;8.35;7.75;;;36.60;1.00;;;;;;5011629;28;20186;-75
2023/06/18 07:34:00;;;;;;;8.63;8.02;;;34.60;1.00;;;;;;5010651;28;20638;-74
2023/06/18 07:36:26;;;;;;;8.70;8.07;;;32.80;1.00;;;;;;5005034;28;20202;-75
2023/06/18 07:38:51;;;;;;;9.50;8.70;;;31.10;1.00;;;;;;5005399;28;20647;-75
2023/06/18 07:41:17;;;;;;;9.52;8.82;;;29.90;1.00;;;;;;5016335;28;20226;-75
2023/06/18 07:43:43;;;;;;;7.78;7.18;;;28.80;1.00;;;;;;5013378;28;20242;-75
2023/06/18 07:46:09;;;;;;;8.52;7.93;;;27.90;1.00;;;;;;5008334;28;20203;-75
2023/06/18 07:48:35;;;;;;;8.02;7.45;;;27.60;1.00;;;;;;5005074;28;20176;-75
2023/06/18 07:51:01;;;;;;;8.48;7.88;;;27.20;1.00;;;;;;5008311;28;20183;-75
2023/06/18 07:53:26;;;;;;;8.10;7.50;;;26.80;1.00;;;;;;5011173;28;20183;-75
2023/06/18 07:55:52;;;;;;;8.07;7.45;;;26.60;1.00;;;;;;5011043;28;20216;-75
2023/06/18 07:58:19;;;;;;;8.35;7.75;;;26.40;1.00;;;;;;4974243;28;1078277;-75
2023/06/18 08:00:45;;;;;;;8.85;8.05;;;26.20;1.00;;;;;;5009783;28;20298;-75
2023/06/18 08:03:10;;;;;;;7.88;7.28;;;25.90;1.00;;;;;;5013213;28;20294;-75
2023/06/18 08:05:36;;;;;;;7.82;7.22;;;25.80;1.00;;;;;;5014876;28;20289;-75
2023/06/18 08:08:01;;;;;;;8.05;7.43;;;25.60;1.00;;;;;;5013035;28;20186;-75
2023/06/18 08:10:27;;;;;;;7.80;7.10;;;25.60;1.00;;;;;;5015135;28;20214;-74
2023/06/18 08:12:53;;;;;;;7.78;7.15;;;25.50;1.00;;;;;;5015775;28;20178;-75
2023/06/18 08:15:18;;;;;;;7.20;6.63;;;25.40;1.00;;;;;;5011441;28;20654;-75
2023/06/18 08:17:44;;;;;;;7.60;6.93;;;25.40;1.00;;;;;;5010794;28;20366;-75
2023/06/18 08:20:10;;;;;;;6.97;6.45;;;25.30;1.00;;;;;;5012560;28;20206;-76
2023/06/18 08:22:36;;;;;;;7.75;6.97;;;25.20;1.00;;;;;;5013506;28;20175;-76
2023/06/18 08:25:01;;;;;;;6.55;6.05;;;25.30;1.00;;;;;;5012172;28;20219;-75
2023/06/18 08:27:27;;;;;;;7.78;7.18;;;25.30;1.00;;;;;;5014593;28;20209;-75
2023/06/18 08:29:52;;;;;;;6.80;6.30;;;25.30;1.00;;;;;;5018475;28;20218;-76
2023/06/18 08:32:18;;;;;;;6.85;6.35;;;25.30;1.00;;;;;;5018143;28;20187;-75
2023/06/18 08:34:45;;;;;;;7.47;6.78;;;25.10;1.00;;;;;;5012358;28;20183;-76
2023/06/18 08:37:12;;;;;;;7.07;6.57;;;24.70;1.00;;;;;;5015392;28;20361;-75
2023/06/18 08:39:38;;;;;;;6.85;6.35;;;24.80;1.00;;;;;;5022983;28;20186;-75
2023/06/18 08:42:05;;;;;;;7.43;6.75;;;24.70;1.00;;;;;;5015333;28;20293;-76
2023/06/18 08:44:33;;;;;;;6.18;5.68;;;24.70;1.00;;;;;;5018023;28;20270;-77
2023/06/18 08:47:03;;;;;;;5.88;5.47;;;24.40;1.00;;;;;;5017520;28;20207;-76
2023/06/18 08:49:32;;;;;;;6.38;5.80;;;24.60;1.00;;;;;;5006029;28;20190;-75
2023/06/18 08:52:02;;;;;;;6.50;6.00;;;24.60;1.00;;;;;;5011692;28;20183;-76
2023/06/18 08:54:35;;;;;;;5.97;5.50;;;24.70;1.00;;;;;;5020697;28;20679;-75
2023/06/18 08:57:37;;;;;;;6.63;6.03;;;24.60;1.00;;;;;;5021131;28;20280;-73
2023/06/18 09:00:04;;;;;;;6.47;5.97;;;24.70;1.00;;;;;;4978470;28;20225;-73
2023/06/18 09:02:30;;;;;;;6.30;5.80;;;24.30;1.00;;;;;;5014640;28;20618;-73
2023/06/18 09:04:57;;;;;;;6.75;6.15;;;24.10;1.00;;;;;;5009433;28;20184;-74
2023/06/18 09:07:24;;;;;;;6.65;6.15;;;24.20;1.00;;;;;;5013215;28;20215;-73
2023/06/18 09:09:50;;;;;;;5.95;5.55;;;24.20;1.00;;;;;;5012667;28;20262;-74
2023/06/18 09:12:16;;;;;;;6.60;6.00;;;24.40;1.00;;;;;;5010902;28;20187;-73
2023/06/18 09:14:42;;;;;;;6.15;5.55;;;24.50;1.00;;;;;;5012221;28;20187;-75
2023/06/18 09:17:07;;;;;;;6.53;5.63;;;24.60;1.00;;;;;;5018645;28;20261;-73
2023/06/18 09:19:34;;;;;;;6.40;5.90;;;24.60;1.00;;;;;;5011433;28;20186;-74
2023/06/18 09:22:17;;;;;;;6.05;5.55;;;24.50;1.00;;;;;;5007554;28;20210;-74
2023/06/18 09:24:43;;;;;;;5.72;5.22;;;24.70;1.00;;;;;;5011313;28;20192;-73
2023/06/18 09:27:09;;;;;;;5.50;5.10;;;24.80;1.00;;;;;;5016418;28;20732;-73
2023/06/18 09:29:37;;;;;;;5.53;5.03;;;24.90;1.00;;;;;;5019127;28;20188;-73
2023/06/18 09:32:09;;;;;;;5.70;5.20;;;25.10;1.00;;;;;;5015981;28;20187;-73
2023/06/18 09:34:35;;;;;;;5.25;4.85;;;24.90;1.00;;;;;;5017398;28;20178;-72
2023/06/18 09:37:02;;;;;;;5.38;4.97;;;25.10;1.00;;;;;;5015889;28;20210;-73
2023/06/18 09:39:28;;;;;;;4.80;4.47;;;25.30;1.00;;;;;;5013355;28;20186;-73
2023/06/18 09:41:55;;;;;;;5.90;5.00;;;25.20;1.00;;;;;;5019658;28;20541;-74
2023/06/18 09:44:22;;;;;;;5.03;4.63;;;25.20;1.00;;;;;;5014125;28;20184;-72
2023/06/18 09:46:58;;;;;;;5.25;4.85;;;25.20;1.00;;;;;;5018631;28;20207;-75
2023/06/18 09:49:26;;;;;;;5.45;4.95;;;25.30;1.00;;;;;;5013345;28;20175;-73
2023/06/18 09:51:53;;;;;;;4.90;4.50;;;25.10;1.00;;;;;;5014703;28;21194;-71
2023/06/18 09:54:20;;;;;;;5.47;5.03;;;25.00;1.00;;;;;;5018007;28;20548;-72
2023/06/18 09:57:16;;;;;;;5.22;4.72;;;24.90;1.00;;;;;;5012200;28;20221;-73
2023/06/18 09:59:41;;;;;;;5.68;5.18;;;25.00;1.00;;;;;;4993811;28;20184;-72
2023/06/18 10:02:12;;;;;;;5.65;5.15;;;25.20;1.00;;;;;;5010393;28;20198;-71
2023/06/18 10:04:39;;;;;;;7.25;6.55;;;25.30;1.00;;;;;;5014518;28;20175;-73
2023/06/18 10:07:13;;;;;;;7.53;6.93;;;25.30;1.00;;;;;;5009679;28;20286;-72
2023/06/18 10:09:41;;;;;;;5.40;5.00;;;25.50;1.00;;;;;;4995191;28;20211;-72
2023/06/18 10:12:07;;;;;;;5.40;5.00;;;25.60;1.00;;;;;;5014352;28;20182;-74
2023/06/18 10:14:34;;;;;;;5.32;4.93;;;25.60;1.00;;;;;;5015308;28;20207;-73
2023/06/18 10:17:07;;;;;;;9.10;8.40;;;25.70;1.00;;;;;;5014677;28;20674;-72
2023/06/18 10:19:52;;;;;;;5.82;5.20;;;25.50;1.00;;;;;;4997364;28;20534;-73
2023/06/18 10:22:18;;;;;;;5.13;4.72;;;25.60;1.00;;;;;;5017375;28;20717;-73
2023/06/18 10:25:00;;;;;;;5.43;4.93;;;25.60;1.00;;;;;;5012335;28;20179;-76
2023/06/18 10:27:27;;;;;;;5.05;4.68;;;25.70;1.00;;;;;;5012788;28;20210;-74
2023/06/18 10:29:52;;;;;;;5.30;4.90;;;25.90;1.00;;;;;;5017117;28;20274;-77
2023/06/18 10:32:19;;;;;;;4.55;4.25;;;26.00;1.00;;;;;;5019772;28;20338;-75
2023/06/18 10:34:45;;;;;;;4.50;4.20;;;26.10;1.00;;;;;;5013961;28;20198;-73
2023/06/18 10:37:12;;;;;;;4.90;4.40;;;26.20;1.00;;;;;;5014371;28;20353;-80
2023/06/18 10:39:38;;;;;;;4.70;4.40;;;26.20;1.00;;;;;;5005897;28;20651;-75
2023/06/18 10:42:12;;;;;;;4.97;4.55;;;26.30;1.00;;;;;;5014941;28;20188;-74
2023/06/18 10:44:47;;;;;;;5.07;4.68;;;26.30;1.00;;;;;;5010415;28;20198;-72
2023/06/18 10:47:16;;;;;;;4.95;4.47;;;26.30;1.00;;;;;;5010701;28;20206;-73
2023/06/18 10:50:02;;;;;;;4.65;4.25;;;26.20;1.00;;;;;;5012154;28;20180;-75
2023/06/18 10:52:30;;;;;;;4.90;4.50;;;26.00;1.00;;;;;;5012176;28;20656;-72
2023/06/18 10:55:07;;;;;;;5.18;4.78;;;26.10;1.00;;;;;;5014096;28;20230;-73
2023/06/18 10:57:41;;;;;;;4.95;4.63;;;26.10;1.00;;;;;;5009940;28;20199;-75
2023/06/18 11:00:16;;;;;;;5.35;4.95;;;26.20;1.00;;;;;;5018212;28;20210;-72
2023/06/18 11:02:46;;;;;;;4.72;4.32;;;26.20;1.00;;;;;;5012364;28;20183;-73
2023/06/18 11:05:41;;;;;;;4.68;4.38;;;26.30;1.00;;;;;;4994405;28;20188;-73
2023/06/18 11:08:09;;;;;;;5.10;4.60;;;26.30;1.00;;;;;;4998888;28;20241;-76
2023/06/18 11:10:45;;;;;;;4.68;4.38;;;26.10;1.00;;;;;;4997852;28;20272;-73
2023/06/18 11:13:11;;;;;;;5.50;4.60;;;26.30;1.00;;;;;;5010671;28;20217;-78
2023/06/18 11:15:58;;;;;;;4.63;4.22;;;26.20;1.00;;;;;;5018519;28;20213;-73
2023/06/18 11:18:27;;;;;;;5.53;5.10;;;26.40;1.00;;;;;;5015834;28;20744;-72
2023/06/18 11:20:57;;;;;;;5.32;4.82;;;26.40;1.00;;;;;;5012146;28;20230;-74
2023/06/18 11:23:24;;;;;;;5.47;4.95;;;26.50;1.00;;;;;;5009654;28;20179;-72
2023/06/18 11:25:51;;;;;;;5.00;4.60;;;26.50;1.00;;;;;;5001073;28;20234;-72
2023/06/18 11:28:16;;;;;;;4.93;4.50;;;26.20;1.00;;;;;;5011191;28;20715;-73
2023/06/18 11:30:53;;;;;;;4.53;4.13;;;26.20;1.00;;;;;;5012948;28;20194;-73
2023/06/18 11:33:22;;;;;;;4.70;4.38;;;26.50;1.00;;;;;;5002541;28;20215;-73
2023/06/18 11:35:48;;;;;;;4.82;4.43;;;26.70;1.00;;;;;;5006189;28;20286;-73
2023/06/18 11:38:14;;;;;;;5.07;4.70;;;26.80;1.00;;;;;;5010533;28;20180;-75
2023/06/18 11:40:51;;;;;;;4.93;4.43;;;26.60;1.00;;;;;;5021256;28;20257;-75
2023/06/18 11:43:17;;;;;;;4.60;4.25;;;26.70;1.00;;;;;;5010874;28;20175;-73
2023/06/18 11:45:53;;;;;;;7.28;6.60;;;26.70;1.00;;;;;;5009115;28;20270;-75
2023/06/18 11:48:22;;;;;;;5.82;5.22;;;26.80;1.00;;;;;;5008571;28;20661;-73
2023/06/18 11:50:55;;;;;;;4.75;4.45;;;26.80;1.00;;;;;;4995676;28;20198;-73
2023/06/18 11:53:21;;;;;;;4.68;4.20;;;26.30;1.00;;;;;;5013995;28;20188;-74
2023/06/18 11:55:47;;;;;;;4.68;4.25;;;26.20;1.00;;;;;;5010335;28;20202;-74
2023/06/18 11:58:15;;;;;;;4.45;4.15;;;26.40;1.00;;;;;;5009439;28;20194;-74
2023/06/18 12:00:41;;;;;;;4.93;4.43;;;26.50;1.00;;;;;;5011876;28;20210;-73
2023/06/18 12:03:06;;;;;;;4.70;4.30;;;26.70;1.00;;;;;;5012780;28;20262;-74
2023/06/18 12:05:38;;;;;;;4.47;4.13;;;27.00;1.00;;;;;;5015595;28;20310;-74
2023/06/18 12:08:12;;;;;;;4.90;4.45;;;27.00;1.00;;;;;;5011425;28;20183;-73
2023/06/18 12:10:38;;;;;;;4.43;4.00;;;26.80;1.00;;;;;;5010759;28;20278;-74
2023/06/18 12:13:25;;;;;;;5.10;4.60;;;26.80;1.00;;;;;;5017172;28;20195;-76
2023/06/18 12:15:56;;;;;;;5.00;4.60;;;26.90;1.00;;;;;;5016368;28;20733;-73
2023/06/18 12:18:35;;;;;;;4.43;4.07;;;27.00;1.00;;;;;;5013659;28;20191;-73
2023/06/18 12:21:02;;;;;;;5.30;4.90;;;27.10;1.00;;;;;;5014397;28;20207;-73
2023/06/18 12:23:28;;;;;;;4.75;4.35;;;27.10;1.00;;;;;;5013188;28;20263;-74
2023/06/18 12:25:54;;;;;;;4.85;4.15;;;27.10;1.00;;;;;;5017774;28;20676;-73
2023/06/18 12:28:24;;;;;;;4.65;4.25;;;27.10;1.00;;;;;;5013504;28;20192;-73
2023/06/18 12:30:53;;;;;;;4.53;4.10;;;27.30;1.00;;;;;;5013405;28;20551;-74
2023/06/18 12:33:19;;;;;;;4.50;4.20;;;27.40;1.00;;;;;;5016257;28;20338;-74
2023/06/18 12:35:46;;;;;;;4.22;3.92;;;27.40;1.00;;;;;;5018782;28;20207;-73
2023/06/18 12:38:12;;;;;;;4.38;4.07;;;27.40;1.00;;;;;;5012515;28;20183;-72
2023/06/18 12:40:53;;;;;;;4.45;4.15;;;27.50;1.00;;;;;;5013353;28;20218;-75
2023/06/18 12:43:19;;;;;;;4.53;4.18;;;27.60;1.00;;;;;;5000593;28;20547;-74
2023/06/18 12:45:47;;;;;;;4.15;3.85;;;27.80;1.00;;;;;;5015265;28;20195;-75
2023/06/18 12:48:20;;;;;;;4.07;3.78;;;27.90;1.00;;;;;;4997601;28;20192;-73
2023/06/18 12:50:48;;;;;;;4.13;3.83;;;27.90;1.00;;;;;;5018319;28;20773;-75